Startpagina
METAR-TAF:

METAR-TAF

Vliegvelden :

Kassel, Duitsland

breedte: 51-24N, lengte: 009-23E, hoogte: 277 m

Actueel weer

Dit bericht is 19 minuten geleden gemaakt, om 07:50 UTC
Wind 14 kt uit het zuidwesten
Temperatuur 20°C
Vochtigheid 78%
Druk 1012 hPa
Zicht 10 km of meer
Verspreide wolken op 2600 ft
Gebroken wolken op 3000 ft
buien in de omgeving

METAR: EDVK 050750Z 22014KT 9999 VCSH SCT026 BKN030 20/16 Q1012

Tijdstip: 10:09 (08:09 UTC)

Verwachting

Dit bericht is 34 minuten geleden gemaakt, om 07:35 UTC
Verwachting geldig van 05 om 08 UTC tot 05 om 15 UTC
Wind 12 kt uit het zuidwesten
Zicht 10 km of meer
Gebroken wolken op 2000 ft
Tijdelijke
van 05 om 08 UTC tot 05 om 15 UTC
Wind 15 kt uit het zuidwesten met uitschieters tot 30 kt

TAF: EDVK 050735Z 0508/0515 22012KT 9999 BKN020 TEMPO 0508/0515 23015G30KT

Waarnemingen en weersverwachtingen van meer dan 4000 vliegvelden (METAR en TAF).

De beschikbare stations zijn de gele en rode punten op de kaart.

Ga met uw muis naar het station om de naam te zien.

Klik dan om waarnemingen en weersverwachtingen te zien.

kaart wijzigen: klik op de groene knoppen met een zwart kruis om in te zoomen, op de groene knop met een streepje om uit te zoomen of op de groene pijlen voor aangrenzende kaarten.


METAR-TAF: